sensor_id;sensor_type;location;lat;lon;timestamp;P1;durP1;ratioP1;P2;durP2;ratioP2
76708;SDS011;74360;44.410;0.216;2024-01-16T00:01:22;137.13;;;29.00;;
76708;SDS011;74360;44.410;0.216;2024-01-16T00:06:55;106.83;;;27.13;;
76708;SDS011;74360;44.410;0.216;2024-01-16T00:12:24;70.13;;;21.87;;
76708;SDS011;74360;44.410;0.216;2024-01-16T00:17:59;102.90;;;22.37;;
76708;SDS011;74360;44.410;0.216;2024-01-16T00:34:38;116.73;;;23.40;;
76708;SDS011;74360;44.410;0.216;2024-01-16T00:40:11;50.20;;;18.63;;
76708;SDS011;74360;44.410;0.216;2024-01-16T00:45:43;46.20;;;19.23;;
76708;SDS011;74360;44.410;0.216;2024-01-16T00:51:16;46.67;;;17.47;;
76708;SDS011;74360;44.410;0.216;2024-01-16T00:56:50;53.80;;;18.00;;
76708;SDS011;74360;44.410;0.216;2024-01-16T01:02:21;123.50;;;25.13;;
76708;SDS011;74360;44.410;0.216;2024-01-16T01:07:55;65.90;;;19.27;;
76708;SDS011;74360;44.410;0.216;2024-01-16T01:13:28;68.10;;;19.50;;
76708;SDS011;74360;44.410;0.216;2024-01-16T01:19:02;94.13;;;21.53;;
76708;SDS011;74360;44.410;0.216;2024-01-16T01:24:36;55.33;;;18.33;;
76708;SDS011;74360;44.410;0.216;2024-01-16T01:30:08;62.73;;;19.93;;
76708;SDS011;74360;44.410;0.216;2024-01-16T01:35:40;47.37;;;17.73;;
76708;SDS011;74360;44.410;0.216;2024-01-16T01:41:15;69.43;;;19.70;;
76708;SDS011;74360;44.410;0.216;2024-01-16T01:46:50;58.53;;;23.37;;
76708;SDS011;74360;44.410;0.216;2024-01-16T01:52:18;68.23;;;22.03;;
76708;SDS011;74360;44.410;0.216;2024-01-16T01:57:50;65.03;;;21.03;;
76708;SDS011;74360;44.410;0.216;2024-01-16T02:03:22;49.47;;;17.93;;
76708;SDS011;74360;44.410;0.216;2024-01-16T02:08:55;52.00;;;19.67;;
76708;SDS011;74360;44.410;0.216;2024-01-16T02:14:29;45.80;;;19.90;;
76708;SDS011;74360;44.410;0.216;2024-01-16T02:20:00;41.83;;;19.13;;
76708;SDS011;74360;44.410;0.216;2024-01-16T02:25:34;37.43;;;17.23;;
76708;SDS011;74360;44.410;0.216;2024-01-16T02:31:07;46.23;;;22.70;;
76708;SDS011;74360;44.410;0.216;2024-01-16T02:36:40;39.70;;;19.07;;
76708;SDS011;74360;44.410;0.216;2024-01-16T02:42:13;82.47;;;20.60;;
76708;SDS011;74360;44.410;0.216;2024-01-16T02:47:44;80.60;;;17.67;;
76708;SDS011;74360;44.410;0.216;2024-01-16T02:53:17;71.13;;;18.43;;
76708;SDS011;74360;44.410;0.216;2024-01-16T02:58:50;41.63;;;16.03;;
76708;SDS011;74360;44.410;0.216;2024-01-16T03:04:23;48.50;;;18.47;;
76708;SDS011;74360;44.410;0.216;2024-01-16T03:09:57;54.77;;;20.53;;
76708;SDS011;74360;44.410;0.216;2024-01-16T03:15:29;40.23;;;18.33;;
76708;SDS011;74360;44.410;0.216;2024-01-16T03:21:01;37.23;;;16.63;;
76708;SDS011;74360;44.410;0.216;2024-01-16T03:26:33;47.07;;;18.87;;
76708;SDS011;74360;44.410;0.216;2024-01-16T03:32:05;47.07;;;16.37;;
76708;SDS011;74360;44.410;0.216;2024-01-16T03:37:38;40.73;;;15.93;;
76708;SDS011;74360;44.410;0.216;2024-01-16T03:43:11;28.87;;;14.80;;
76708;SDS011;74360;44.410;0.216;2024-01-16T03:48:44;44.53;;;22.77;;
76708;SDS011;74360;44.410;0.216;2024-01-16T03:54:16;37.40;;;16.87;;
76708;SDS011;74360;44.410;0.216;2024-01-16T03:59:47;33.87;;;15.60;;
76708;SDS011;74360;44.410;0.216;2024-01-16T04:05:20;32.07;;;15.57;;
76708;SDS011;74360;44.410;0.216;2024-01-16T04:10:54;28.47;;;14.07;;
76708;SDS011;74360;44.410;0.216;2024-01-16T04:16:27;31.37;;;13.77;;
76708;SDS011;74360;44.410;0.216;2024-01-16T04:21:59;46.13;;;16.03;;
76708;SDS011;74360;44.410;0.216;2024-01-16T04:27:33;43.43;;;17.07;;
76708;SDS011;74360;44.410;0.216;2024-01-16T04:33:06;60.93;;;18.33;;
76708;SDS011;74360;44.410;0.216;2024-01-16T04:38:38;80.73;;;19.00;;
76708;SDS011;74360;44.410;0.216;2024-01-16T04:44:10;43.53;;;17.37;;
76708;SDS011;74360;44.410;0.216;2024-01-16T04:49:42;94.63;;;21.10;;
76708;SDS011;74360;44.410;0.216;2024-01-16T04:55:14;104.97;;;19.67;;
76708;SDS011;74360;44.410;0.216;2024-01-16T05:00:47;39.63;;;17.13;;
76708;SDS011;74360;44.410;0.216;2024-01-16T05:06:20;57.80;;;18.37;;
76708;SDS011;74360;44.410;0.216;2024-01-16T05:11:53;37.30;;;15.50;;
76708;SDS011;74360;44.410;0.216;2024-01-16T05:17:25;26.83;;;14.37;;
76708;SDS011;74360;44.410;0.216;2024-01-16T05:22:57;29.60;;;15.27;;
76708;SDS011;74360;44.410;0.216;2024-01-16T05:28:30;46.03;;;16.63;;
76708;SDS011;74360;44.410;0.216;2024-01-16T05:34:01;34.23;;;16.77;;
76708;SDS011;74360;44.410;0.216;2024-01-16T05:39:35;43.37;;;16.87;;
76708;SDS011;74360;44.410;0.216;2024-01-16T05:45:08;39.73;;;15.23;;
76708;SDS011;74360;44.410;0.216;2024-01-16T05:50:39;36.53;;;16.90;;
76708;SDS011;74360;44.410;0.216;2024-01-16T05:56:12;33.33;;;17.30;;
76708;SDS011;74360;44.410;0.216;2024-01-16T06:01:43;31.07;;;14.30;;
76708;SDS011;74360;44.410;0.216;2024-01-16T06:07:17;47.17;;;18.70;;
76708;SDS011;74360;44.410;0.216;2024-01-16T06:12:49;35.67;;;16.20;;
76708;SDS011;74360;44.410;0.216;2024-01-16T06:18:22;48.53;;;17.70;;
76708;SDS011;74360;44.410;0.216;2024-01-16T06:23:55;40.33;;;16.30;;
76708;SDS011;74360;44.410;0.216;2024-01-16T06:29:28;37.43;;;16.60;;
76708;SDS011;74360;44.410;0.216;2024-01-16T06:35:01;44.73;;;19.63;;
76708;SDS011;74360;44.410;0.216;2024-01-16T06:40:33;65.80;;;27.50;;
76708;SDS011;74360;44.410;0.216;2024-01-16T06:46:06;47.97;;;21.03;;
76708;SDS011;74360;44.410;0.216;2024-01-16T06:51:37;44.43;;;20.33;;
76708;SDS011;74360;44.410;0.216;2024-01-16T06:57:10;43.83;;;18.27;;
76708;SDS011;74360;44.410;0.216;2024-01-16T07:02:43;38.13;;;19.57;;
76708;SDS011;74360;44.410;0.216;2024-01-16T07:08:14;33.43;;;17.73;;
76708;SDS011;74360;44.410;0.216;2024-01-16T07:13:47;29.70;;;16.13;;
76708;SDS011;74360;44.410;0.216;2024-01-16T07:19:20;31.07;;;15.53;;
76708;SDS011;74360;44.410;0.216;2024-01-16T07:24:54;27.63;;;14.93;;
76708;SDS011;74360;44.410;0.216;2024-01-16T07:36:00;20.17;;;11.83;;
76708;SDS011;74360;44.410;0.216;2024-01-16T07:41:32;12.20;;;3.40;;
76708;SDS011;74360;44.410;0.216;2024-01-16T07:47:04;16.17;;;9.97;;
76708;SDS011;74360;44.410;0.216;2024-01-16T07:52:37;8.77;;;3.60;;
76708;SDS011;74360;44.410;0.216;2024-01-16T07:58:10;6.07;;;2.50;;
76708;SDS011;74360;44.410;0.216;2024-01-16T08:03:44;5.13;;;1.57;;
76708;SDS011;74360;44.410;0.216;2024-01-16T08:09:16;5.87;;;1.93;;
76708;SDS011;74360;44.410;0.216;2024-01-16T08:14:49;6.07;;;2.10;;
76708;SDS011;74360;44.410;0.216;2024-01-16T08:20:23;4.43;;;1.40;;
76708;SDS011;74360;44.410;0.216;2024-01-16T08:25:55;4.00;;;1.40;;
76708;SDS011;74360;44.410;0.216;2024-01-16T08:31:28;4.30;;;1.90;;
76708;SDS011;74360;44.410;0.216;2024-01-16T08:36:59;11.40;;;2.57;;
76708;SDS011;74360;44.410;0.216;2024-01-16T08:42:31;5.27;;;1.60;;
76708;SDS011;74360;44.410;0.216;2024-01-16T08:48:05;4.70;;;1.83;;
76708;SDS011;74360;44.410;0.216;2024-01-16T08:53:36;9.63;;;1.73;;
76708;SDS011;74360;44.410;0.216;2024-01-16T08:59:11;6.73;;;1.20;;
76708;SDS011;74360;44.410;0.216;2024-01-16T09:04:42;7.57;;;1.30;;
76708;SDS011;74360;44.410;0.216;2024-01-16T09:10:15;7.53;;;1.13;;
76708;SDS011;74360;44.410;0.216;2024-01-16T09:15:47;9.07;;;1.90;;
76708;SDS011;74360;44.410;0.216;2024-01-16T09:21:19;5.27;;;1.40;;
76708;SDS011;74360;44.410;0.216;2024-01-16T09:26:50;6.23;;;2.20;;
76708;SDS011;74360;44.410;0.216;2024-01-16T09:32:23;6.80;;;1.60;;
76708;SDS011;74360;44.410;0.216;2024-01-16T09:37:55;4.07;;;1.20;;
76708;SDS011;74360;44.410;0.216;2024-01-16T09:43:28;5.20;;;1.40;;
76708;SDS011;74360;44.410;0.216;2024-01-16T09:49:02;7.57;;;2.50;;
76708;SDS011;74360;44.410;0.216;2024-01-16T09:54:34;8.53;;;2.30;;
76708;SDS011;74360;44.410;0.216;2024-01-16T10:00:09;7.53;;;1.70;;
76708;SDS011;74360;44.410;0.216;2024-01-16T10:05:41;4.03;;;1.10;;
76708;SDS011;74360;44.410;0.216;2024-01-16T10:11:14;4.27;;;1.00;;
76708;SDS011;74360;44.410;0.216;2024-01-16T10:16:55;2.73;;;0.90;;
76708;SDS011;74360;44.410;0.216;2024-01-16T10:22:20;2.83;;;0.80;;
76708;SDS011;74360;44.410;0.216;2024-01-16T10:28:02;4.50;;;0.90;;
76708;SDS011;74360;44.410;0.216;2024-01-16T10:33:25;5.37;;;1.20;;
76708;SDS011;74360;44.410;0.216;2024-01-16T10:39:02;6.37;;;1.00;;
76708;SDS011;74360;44.410;0.216;2024-01-16T10:44:29;5.87;;;1.10;;
76708;SDS011;74360;44.410;0.216;2024-01-16T10:50:02;3.90;;;1.17;;
76708;SDS011;74360;44.410;0.216;2024-01-16T11:01:08;10.67;;;2.97;;
76708;SDS011;74360;44.410;0.216;2024-01-16T11:06:39;7.90;;;1.30;;
76708;SDS011;74360;44.410;0.216;2024-01-16T11:12:17;4.23;;;1.10;;
76708;SDS011;74360;44.410;0.216;2024-01-16T11:17:46;5.70;;;2.33;;
76708;SDS011;74360;44.410;0.216;2024-01-16T11:23:18;6.37;;;0.93;;
76708;SDS011;74360;44.410;0.216;2024-01-16T11:28:51;5.23;;;1.30;;
76708;SDS011;74360;44.410;0.216;2024-01-16T11:51:07;5.10;;;1.50;;
76708;SDS011;74360;44.410;0.216;2024-01-16T12:02:10;4.90;;;1.13;;
76708;SDS011;74360;44.410;0.216;2024-01-16T12:07:45;2.27;;;0.60;;
76708;SDS011;74360;44.410;0.216;2024-01-16T12:13:14;4.00;;;0.70;;
76708;SDS011;74360;44.410;0.216;2024-01-16T12:18:46;5.80;;;1.30;;
76708;SDS011;74360;44.410;0.216;2024-01-16T12:24:19;5.37;;;1.53;;
76708;SDS011;74360;44.410;0.216;2024-01-16T12:35:25;6.03;;;1.77;;
76708;SDS011;74360;44.410;0.216;2024-01-16T12:40:57;4.43;;;1.30;;
76708;SDS011;74360;44.410;0.216;2024-01-16T12:46:30;4.40;;;1.07;;
76708;SDS011;74360;44.410;0.216;2024-01-16T12:57:35;3.77;;;1.00;;
76708;SDS011;74360;44.410;0.216;2024-01-16T13:03:08;5.07;;;1.20;;
76708;SDS011;74360;44.410;0.216;2024-01-16T13:08:39;4.63;;;0.93;;
76708;SDS011;74360;44.410;0.216;2024-01-16T13:14:11;8.47;;;1.20;;
76708;SDS011;74360;44.410;0.216;2024-01-16T13:19:44;5.03;;;0.80;;
76708;SDS011;74360;44.410;0.216;2024-01-16T13:25:16;4.97;;;0.90;;
76708;SDS011;74360;44.410;0.216;2024-01-16T13:30:48;5.23;;;0.90;;
76708;SDS011;74360;44.410;0.216;2024-01-16T13:36:23;3.23;;;0.80;;
76708;SDS011;74360;44.410;0.216;2024-01-16T13:41:54;6.10;;;0.70;;
76708;SDS011;74360;44.410;0.216;2024-01-16T13:47:26;4.90;;;0.80;;
76708;SDS011;74360;44.410;0.216;2024-01-16T13:52:58;6.23;;;1.50;;
76708;SDS011;74360;44.410;0.216;2024-01-16T13:58:32;10.07;;;2.57;;
76708;SDS011;74360;44.410;0.216;2024-01-16T14:04:05;7.20;;;1.67;;
76708;SDS011;74360;44.410;0.216;2024-01-16T14:09:37;6.77;;;1.97;;
76708;SDS011;74360;44.410;0.216;2024-01-16T14:15:14;10.30;;;1.70;;
76708;SDS011;74360;44.410;0.216;2024-01-16T14:20:41;4.67;;;1.33;;
76708;SDS011;74360;44.410;0.216;2024-01-16T14:26:16;7.50;;;2.47;;
76708;SDS011;74360;44.410;0.216;2024-01-16T14:31:49;8.67;;;1.70;;
76708;SDS011;74360;44.410;0.216;2024-01-16T14:37:21;6.10;;;1.23;;
76708;SDS011;74360;44.410;0.216;2024-01-16T14:42:54;8.27;;;1.90;;
76708;SDS011;74360;44.410;0.216;2024-01-16T14:48:25;6.30;;;1.67;;
76708;SDS011;74360;44.410;0.216;2024-01-16T14:54:02;9.63;;;2.70;;
76708;SDS011;74360;44.410;0.216;2024-01-16T14:59:32;4.73;;;1.43;;
76708;SDS011;74360;44.410;0.216;2024-01-16T15:05:05;6.27;;;1.70;;
76708;SDS011;74360;44.410;0.216;2024-01-16T15:10:38;6.40;;;1.63;;
76708;SDS011;74360;44.410;0.216;2024-01-16T15:16:11;11.33;;;3.70;;
76708;SDS011;74360;44.410;0.216;2024-01-16T15:21:42;9.10;;;2.97;;
76708;SDS011;74360;44.410;0.216;2024-01-16T15:27:14;11.23;;;4.60;;
76708;SDS011;74360;44.410;0.216;2024-01-16T15:32:46;10.33;;;1.90;;
76708;SDS011;74360;44.410;0.216;2024-01-16T15:38:19;12.53;;;4.83;;
76708;SDS011;74360;44.410;0.216;2024-01-16T15:43:51;22.43;;;8.57;;
76708;SDS011;74360;44.410;0.216;2024-01-16T15:49:23;34.90;;;14.27;;
76708;SDS011;74360;44.410;0.216;2024-01-16T15:54:53;17.07;;;7.87;;
76708;SDS011;74360;44.410;0.216;2024-01-16T16:00:28;26.13;;;11.27;;
76708;SDS011;74360;44.410;0.216;2024-01-16T16:06:01;13.77;;;4.00;;
76708;SDS011;74360;44.410;0.216;2024-01-16T16:11:34;8.13;;;2.83;;
76708;SDS011;74360;44.410;0.216;2024-01-16T16:17:08;13.47;;;2.80;;
76708;SDS011;74360;44.410;0.216;2024-01-16T16:22:39;12.87;;;4.07;;
76708;SDS011;74360;44.410;0.216;2024-01-16T16:28:09;12.80;;;4.63;;
76708;SDS011;74360;44.410;0.216;2024-01-16T16:33:42;17.77;;;5.87;;
76708;SDS011;74360;44.410;0.216;2024-01-16T16:39:18;10.23;;;4.40;;
76708;SDS011;74360;44.410;0.216;2024-01-16T16:44:49;10.93;;;3.60;;
76708;SDS011;74360;44.410;0.216;2024-01-16T16:50:22;14.33;;;5.47;;
76708;SDS011;74360;44.410;0.216;2024-01-16T16:55:54;13.27;;;4.93;;
76708;SDS011;74360;44.410;0.216;2024-01-16T17:01:26;12.77;;;6.13;;
76708;SDS011;74360;44.410;0.216;2024-01-16T17:06:59;14.47;;;4.40;;
76708;SDS011;74360;44.410;0.216;2024-01-16T17:12:33;23.37;;;8.00;;
76708;SDS011;74360;44.410;0.216;2024-01-16T17:18:04;14.47;;;6.10;;
76708;SDS011;74360;44.410;0.216;2024-01-16T17:23:37;15.97;;;5.87;;
76708;SDS011;74360;44.410;0.216;2024-01-16T17:29:10;20.77;;;8.10;;
76708;SDS011;74360;44.410;0.216;2024-01-16T17:34:43;34.13;;;15.50;;
76708;SDS011;74360;44.410;0.216;2024-01-16T17:40:16;18.77;;;8.47;;
76708;SDS011;74360;44.410;0.216;2024-01-16T17:45:48;17.83;;;6.80;;
76708;SDS011;74360;44.410;0.216;2024-01-16T17:51:20;15.13;;;8.13;;
76708;SDS011;74360;44.410;0.216;2024-01-16T17:56:53;17.63;;;9.90;;
76708;SDS011;74360;44.410;0.216;2024-01-16T18:02:27;13.20;;;5.37;;
76708;SDS011;74360;44.410;0.216;2024-01-16T18:07:59;12.70;;;6.47;;
76708;SDS011;74360;44.410;0.216;2024-01-16T18:13:31;23.27;;;12.63;;
76708;SDS011;74360;44.410;0.216;2024-01-16T18:19:04;19.83;;;10.13;;
76708;SDS011;74360;44.410;0.216;2024-01-16T18:24:38;11.73;;;4.80;;
76708;SDS011;74360;44.410;0.216;2024-01-16T18:30:10;10.50;;;3.90;;
76708;SDS011;74360;44.410;0.216;2024-01-16T18:35:43;15.40;;;4.20;;
76708;SDS011;74360;44.410;0.216;2024-01-16T18:41:16;11.43;;;5.33;;
76708;SDS011;74360;44.410;0.216;2024-01-16T18:46:49;10.23;;;3.57;;
76708;SDS011;74360;44.410;0.216;2024-01-16T18:52:21;17.30;;;10.37;;
76708;SDS011;74360;44.410;0.216;2024-01-16T18:58:00;14.50;;;8.40;;
76708;SDS011;74360;44.410;0.216;2024-01-16T19:03:26;13.67;;;5.90;;
76708;SDS011;74360;44.410;0.216;2024-01-16T19:08:59;19.00;;;9.73;;
76708;SDS011;74360;44.410;0.216;2024-01-16T19:14:32;18.57;;;9.67;;
76708;SDS011;74360;44.410;0.216;2024-01-16T19:20:10;14.20;;;7.10;;
76708;SDS011;74360;44.410;0.216;2024-01-16T19:25:38;20.63;;;11.57;;
76708;SDS011;74360;44.410;0.216;2024-01-16T19:31:11;19.60;;;11.60;;
76708;SDS011;74360;44.410;0.216;2024-01-16T19:36:47;20.40;;;8.60;;
76708;SDS011;74360;44.410;0.216;2024-01-16T19:42:17;24.23;;;11.73;;
76708;SDS011;74360;44.410;0.216;2024-01-16T19:47:50;17.83;;;8.27;;
76708;SDS011;74360;44.410;0.216;2024-01-16T19:53:23;18.13;;;7.13;;
76708;SDS011;74360;44.410;0.216;2024-01-16T19:58:58;23.67;;;14.83;;
76708;SDS011;74360;44.410;0.216;2024-01-16T20:04:27;33.13;;;16.43;;
76708;SDS011;74360;44.410;0.216;2024-01-16T20:09:59;18.60;;;8.13;;
76708;SDS011;74360;44.410;0.216;2024-01-16T20:15:32;18.23;;;11.00;;
76708;SDS011;74360;44.410;0.216;2024-01-16T20:21:06;20.50;;;9.73;;
76708;SDS011;74360;44.410;0.216;2024-01-16T20:32:10;27.07;;;19.67;;
76708;SDS011;74360;44.410;0.216;2024-01-16T20:37:43;15.33;;;6.97;;
76708;SDS011;74360;44.410;0.216;2024-01-16T20:43:15;19.47;;;6.90;;
76708;SDS011;74360;44.410;0.216;2024-01-16T20:48:47;10.77;;;4.30;;
76708;SDS011;74360;44.410;0.216;2024-01-16T20:54:18;10.27;;;4.00;;
76708;SDS011;74360;44.410;0.216;2024-01-16T20:59:51;11.33;;;4.30;;
76708;SDS011;74360;44.410;0.216;2024-01-16T21:05:23;11.47;;;4.40;;
76708;SDS011;74360;44.410;0.216;2024-01-16T21:10:56;21.83;;;10.00;;
76708;SDS011;74360;44.410;0.216;2024-01-16T21:16:30;12.03;;;5.77;;
76708;SDS011;74360;44.410;0.216;2024-01-16T21:22:03;12.07;;;4.73;;
76708;SDS011;74360;44.410;0.216;2024-01-16T21:27:37;10.03;;;4.43;;
76708;SDS011;74360;44.410;0.216;2024-01-16T21:33:08;10.73;;;4.63;;
76708;SDS011;74360;44.410;0.216;2024-01-16T21:38:40;9.60;;;5.00;;
76708;SDS011;74360;44.410;0.216;2024-01-16T21:44:12;9.27;;;4.43;;
76708;SDS011;74360;44.410;0.216;2024-01-16T21:49:45;8.23;;;3.67;;
76708;SDS011;74360;44.410;0.216;2024-01-16T21:55:19;10.13;;;4.07;;
76708;SDS011;74360;44.410;0.216;2024-01-16T22:00:53;8.53;;;4.10;;
76708;SDS011;74360;44.410;0.216;2024-01-16T22:06:24;9.67;;;3.60;;
76708;SDS011;74360;44.410;0.216;2024-01-16T22:11:55;8.83;;;3.50;;
76708;SDS011;74360;44.410;0.216;2024-01-16T22:17:29;12.10;;;4.00;;
76708;SDS011;74360;44.410;0.216;2024-01-16T22:23:00;9.63;;;3.83;;
76708;SDS011;74360;44.410;0.216;2024-01-16T22:28:33;8.93;;;3.73;;
76708;SDS011;74360;44.410;0.216;2024-01-16T22:34:05;8.27;;;4.10;;
76708;SDS011;74360;44.410;0.216;2024-01-16T22:39:38;8.43;;;3.57;;
76708;SDS011;74360;44.410;0.216;2024-01-16T22:45:11;10.73;;;4.50;;
76708;SDS011;74360;44.410;0.216;2024-01-16T22:50:49;13.03;;;4.70;;
76708;SDS011;74360;44.410;0.216;2024-01-16T22:56:18;9.93;;;4.63;;
76708;SDS011;74360;44.410;0.216;2024-01-16T23:01:50;8.40;;;4.37;;
76708;SDS011;74360;44.410;0.216;2024-01-16T23:07:23;12.50;;;4.70;;
76708;SDS011;74360;44.410;0.216;2024-01-16T23:12:56;16.23;;;4.63;;
76708;SDS011;74360;44.410;0.216;2024-01-16T23:18:28;8.90;;;5.17;;
76708;SDS011;74360;44.410;0.216;2024-01-16T23:24:01;22.43;;;8.60;;
76708;SDS011;74360;44.410;0.216;2024-01-16T23:29:35;36.40;;;13.37;;
76708;SDS011;74360;44.410;0.216;2024-01-16T23:35:06;32.30;;;13.20;;
76708;SDS011;74360;44.410;0.216;2024-01-16T23:40:38;10.73;;;5.23;;
76708;SDS011;74360;44.410;0.216;2024-01-16T23:46:11;22.27;;;9.73;;
76708;SDS011;74360;44.410;0.216;2024-01-16T23:51:44;16.93;;;8.60;;
76708;SDS011;74360;44.410;0.216;2024-01-16T23:57:17;16.53;;;8.23;;
